createdAt,value
2019-02-19T13:58:21.676Z,6.90
2019-02-19T13:59:21.372Z,11.60
2019-02-19T14:00:21.309Z,8.20
2019-02-19T14:01:21.394Z,12.10
2019-02-19T14:02:21.216Z,12.60
2019-02-19T14:03:21.156Z,10.20
2019-02-19T14:04:21.106Z,11.40
2019-02-19T14:05:21.289Z,12.00
2019-02-19T14:06:21.016Z,12.20
2019-02-19T14:07:20.968Z,11.90
2019-02-19T14:08:20.995Z,12.60
2019-02-19T14:09:20.891Z,11.20
2019-02-19T14:10:20.897Z,11.20
2019-02-19T14:11:20.781Z,14.10
2019-02-19T14:12:20.754Z,11.00
2019-02-19T14:13:20.740Z,11.40
2019-02-19T14:14:20.860Z,11.20
2019-02-19T14:15:20.633Z,12.20
2019-02-19T14:16:20.549Z,12.10
2019-02-19T14:17:20.531Z,11.30
2019-02-19T14:18:20.461Z,12.10
2019-02-19T14:19:21.551Z,13.70
2019-02-19T14:20:20.388Z,11.60
2019-02-19T14:21:20.337Z,12.80
2019-02-19T14:22:20.290Z,13.60
2019-02-19T14:23:20.462Z,12.00
2019-02-19T14:24:20.196Z,10.60
2019-02-19T14:25:20.144Z,15.20
2019-02-19T14:26:20.677Z,11.80
2019-02-19T14:27:20.054Z,13.40
2019-02-19T14:28:20.010Z,12.10
2019-02-19T14:29:19.961Z,14.20
2019-02-19T14:30:19.913Z,12.50
2019-02-19T14:31:19.864Z,12.20
2019-02-19T14:32:19.961Z,13.90
2019-02-19T14:33:19.752Z,12.60
2019-02-19T14:34:19.703Z,14.80
2019-02-19T14:35:19.673Z,13.10
2019-02-19T14:36:19.616Z,12.70
2019-02-19T14:37:19.567Z,14.10
2019-02-19T14:38:19.516Z,11.00
2019-02-19T14:39:19.666Z,14.00
2019-02-19T14:40:19.425Z,12.60
2019-02-19T14:41:19.376Z,11.10
2019-02-19T14:42:19.346Z,13.40
2019-02-19T14:43:19.280Z,13.70
2019-02-19T14:44:19.236Z,13.00
2019-02-19T14:45:19.186Z,11.20
2019-02-19T14:46:19.371Z,13.80
2019-02-19T14:47:19.094Z,14.20
2019-02-19T14:48:19.048Z,11.60
2019-02-19T14:49:19.001Z,14.60
2019-02-19T14:50:18.957Z,12.70
2019-02-19T14:51:18.906Z,15.40
2019-02-19T14:52:18.860Z,13.00
2019-02-19T14:53:18.977Z,11.90
2019-02-19T14:54:18.764Z,10.90
2019-02-19T14:55:18.730Z,12.00
2019-02-19T14:56:18.686Z,12.40
2019-02-19T14:57:18.624Z,13.10
2019-02-19T14:58:18.578Z,15.30
2019-02-19T14:59:18.531Z,13.60
2019-02-19T15:00:18.488Z,12.40
2019-02-19T15:01:18.436Z,12.20
2019-02-19T15:02:18.389Z,13.20
2019-02-19T15:03:18.341Z,13.20
2019-02-19T15:04:18.295Z,11.60
2019-02-19T15:05:18.281Z,13.30
2019-02-19T15:06:18.202Z,13.60
2019-02-19T15:07:18.157Z,11.40
2019-02-19T15:08:18.118Z,12.20
2019-02-19T15:09:18.063Z,13.60
2019-02-19T15:10:18.013Z,16.30
2019-02-19T15:11:17.971Z,15.50
2019-02-19T15:12:17.937Z,12.10
2019-02-19T15:13:17.876Z,11.20
2019-02-19T15:14:17.847Z,12.60
2019-02-19T15:15:17.783Z,13.40
2019-02-19T15:16:17.732Z,14.20
2019-02-19T15:17:17.685Z,16.20
2019-02-19T15:18:17.636Z,13.20
2019-02-19T15:19:19.902Z,13.10
2019-02-19T15:20:17.546Z,14.70
2019-02-19T15:21:17.495Z,12.80
2019-02-19T15:22:17.449Z,15.10
2019-02-19T15:23:17.403Z,13.00
2019-02-19T15:24:18.885Z,18.60
2019-02-19T15:25:17.306Z,12.80
2019-02-19T15:26:17.259Z,13.80
2019-02-19T15:27:17.237Z,15.00
2019-02-19T15:28:17.167Z,14.60
2019-02-19T15:29:17.176Z,12.60
2019-02-19T15:30:17.072Z,14.20
2019-02-19T15:31:17.641Z,11.90
2019-02-19T15:32:16.978Z,13.70
2019-02-19T15:33:16.934Z,13.00
2019-02-19T15:34:16.923Z,12.40
2019-02-19T15:35:16.836Z,19.80
2019-02-19T15:36:16.996Z,12.90
2019-02-19T15:37:16.742Z,12.40
2019-02-19T15:38:16.698Z,12.50
2019-02-19T15:39:16.647Z,13.70
2019-02-19T15:40:16.599Z,14.10
2019-02-19T15:41:16.707Z,13.40
2019-02-19T15:42:16.507Z,14.50
2019-02-19T15:43:16.719Z,13.10
2019-02-19T15:44:16.471Z,13.40
2019-02-19T15:45:16.366Z,10.40
2019-02-19T15:46:16.501Z,15.50
2019-02-19T15:47:16.269Z,14.00
2019-02-19T15:48:16.224Z,17.50
2019-02-19T15:49:16.177Z,14.10
2019-02-19T15:50:16.129Z,14.20
2019-02-19T15:51:16.303Z,16.30
2019-02-19T15:52:16.032Z,16.50
2019-02-19T15:53:15.986Z,15.00
2019-02-19T15:54:15.950Z,15.10
2019-02-19T15:55:15.892Z,15.00
2019-02-19T15:56:17.829Z,14.60
2019-02-19T15:57:15.799Z,13.60
2019-02-19T15:58:15.747Z,17.00
2019-02-19T15:59:15.712Z,15.90
2019-02-19T16:00:15.672Z,13.50
2019-02-19T16:01:15.813Z,16.80
2019-02-19T16:02:15.557Z,14.60
2019-02-19T16:03:15.511Z,15.30
2019-02-19T16:04:15.478Z,14.50
2019-02-19T16:05:15.419Z,15.70
2019-02-19T16:06:15.521Z,14.70
2019-02-19T16:07:15.321Z,15.10
2019-02-19T16:08:15.272Z,15.00
2019-02-19T16:09:15.222Z,15.20
2019-02-19T16:10:15.184Z,17.80
2019-02-19T16:11:15.326Z,15.30
2019-02-19T16:12:15.082Z,15.10
2019-02-19T16:13:15.034Z,15.30
2019-02-19T16:14:16.874Z,14.30
2019-02-19T16:15:14.947Z,13.60
2019-02-19T16:16:15.127Z,17.80
2019-02-19T16:17:14.855Z,14.30
2019-02-19T16:18:14.797Z,14.70
2019-02-19T16:19:14.752Z,12.40
2019-02-19T16:20:14.706Z,16.00
2019-02-19T16:21:14.828Z,14.30
2019-02-19T16:22:14.605Z,13.70
2019-02-19T16:23:14.560Z,17.40
2019-02-19T16:24:14.517Z,14.40
2019-02-19T16:25:14.465Z,13.70
2019-02-19T16:26:14.428Z,13.20
2019-02-19T16:27:14.378Z,15.20
2019-02-19T16:28:14.516Z,15.50
2019-02-19T16:29:14.286Z,16.60
2019-02-19T16:30:14.441Z,15.40
2019-02-19T16:31:14.175Z,16.60
2019-02-19T16:32:14.130Z,16.40
2019-02-19T16:33:14.908Z,13.50
2019-02-19T16:34:14.037Z,16.50
2019-02-19T16:35:13.995Z,15.20
2019-02-19T16:36:13.935Z,16.30
2019-02-19T16:37:14.042Z,16.30
2019-02-19T16:38:13.837Z,20.80
2019-02-19T16:39:13.792Z,15.80
2019-02-19T16:40:13.741Z,13.60
2019-02-19T16:41:13.692Z,16.70
2019-02-19T16:42:13.666Z,17.50
2019-02-19T16:43:13.610Z,14.10
2019-02-19T16:44:13.739Z,18.30
2019-02-19T16:45:13.501Z,16.80
2019-02-19T16:46:13.454Z,15.40
2019-02-19T16:47:13.408Z,15.10
2019-02-19T16:48:13.358Z,15.30
2019-02-19T16:49:13.318Z,18.80
2019-02-19T16:50:13.269Z,16.00
2019-02-19T16:51:13.454Z,13.90
2019-02-19T16:52:13.165Z,17.20
2019-02-19T16:53:13.123Z,16.70
2019-02-19T16:54:13.081Z,16.00
2019-02-19T16:55:13.019Z,15.70
2019-02-19T16:56:13.153Z,17.90
2019-02-19T16:57:12.923Z,15.40
2019-02-19T16:58:12.876Z,18.00
2019-02-19T16:59:12.828Z,17.90
2019-02-19T17:00:12.780Z,15.50
2019-02-19T17:01:12.963Z,20.10
2019-02-19T17:02:12.685Z,17.20
2019-02-19T17:03:12.646Z,18.30
2019-02-19T17:04:12.597Z,19.10
2019-02-19T17:05:12.539Z,17.80
2019-02-19T17:06:12.668Z,16.80
2019-02-19T17:07:12.460Z,20.10
2019-02-19T17:08:12.391Z,18.00
2019-02-19T17:09:12.352Z,20.00
2019-02-19T17:10:12.297Z,23.70
2019-02-19T17:11:12.457Z,24.30
2019-02-19T17:12:12.196Z,20.80
2019-02-19T17:13:12.148Z,23.10
2019-02-19T17:14:12.098Z,28.80
2019-02-19T17:15:12.055Z,28.30
2019-02-19T17:16:12.001Z,27.60
2019-02-19T17:17:11.953Z,26.00
2019-02-19T17:18:12.078Z,26.90
2019-02-19T17:19:11.856Z,26.80
2019-02-19T17:20:26.307Z,26.10
2019-02-19T17:21:11.768Z,25.40
2019-02-19T17:22:11.714Z,23.90
2019-02-19T17:23:11.659Z,20.00
2019-02-19T17:24:11.611Z,21.10
2019-02-19T17:25:11.570Z,17.80
2019-02-19T17:26:11.513Z,19.20
2019-02-19T17:27:11.665Z,22.10
2019-02-19T17:28:11.415Z,20.00
2019-02-19T17:29:11.366Z,19.20
2019-02-19T17:30:11.325Z,20.00
2019-02-19T17:31:11.269Z,21.20
2019-02-19T17:32:11.222Z,19.10
2019-02-19T17:33:11.170Z,21.10
2019-02-19T17:34:11.126Z,23.70
2019-02-19T17:35:11.072Z,20.30
2019-02-19T17:36:11.179Z,27.70
2019-02-19T17:37:10.977Z,21.10
2019-02-19T17:38:14.746Z,25.30
2019-02-19T17:39:10.873Z,24.60
2019-02-19T17:40:10.825Z,22.60
2019-02-19T17:41:10.984Z,21.90
2019-02-19T17:42:10.728Z,26.80
2019-02-19T17:43:10.677Z,21.20
2019-02-19T17:44:10.641Z,21.80
2019-02-19T17:45:10.577Z,24.00
2019-02-19T17:46:10.688Z,21.10
2019-02-19T17:47:10.479Z,24.00
2019-02-19T17:48:10.433Z,20.40
2019-02-19T17:49:10.384Z,23.90
2019-02-19T17:50:10.332Z,22.00
2019-02-19T17:51:10.297Z,26.60
2019-02-19T17:52:10.238Z,24.10
2019-02-19T17:53:10.191Z,21.90
2019-02-19T17:54:10.137Z,22.20
2019-02-19T17:55:10.295Z,21.80
2019-02-19T17:56:10.038Z,22.80
2019-02-19T17:57:09.988Z,21.60
2019-02-19T17:58:09.941Z,24.50
2019-02-19T17:59:09.889Z,24.40
2019-02-19T18:00:09.853Z,25.70
2019-02-19T18:01:09.790Z,25.90
2019-02-19T18:02:09.887Z,28.10
2019-02-19T18:03:09.692Z,29.90
2019-02-19T18:04:11.082Z,30.60
2019-02-19T18:05:09.594Z,26.80
2019-02-19T18:06:09.545Z,31.20
2019-02-19T18:07:09.515Z,34.50
2019-02-19T18:08:09.458Z,33.00
2019-02-19T18:09:09.594Z,31.50
2019-02-19T18:10:09.347Z,23.60
2019-02-19T18:11:09.306Z,23.00
2019-02-19T18:12:09.251Z,24.60
2019-02-19T18:13:09.200Z,24.50
2019-02-19T18:14:09.172Z,24.70
2019-02-19T18:15:09.155Z,26.90
2019-02-19T18:16:09.298Z,28.10
2019-02-19T18:17:09.002Z,28.30
2019-02-19T18:18:08.956Z,29.20
2019-02-19T18:19:08.908Z,25.90
2019-02-19T18:20:08.860Z,24.20
2019-02-19T18:21:08.824Z,23.80
2019-02-19T18:22:08.757Z,23.90
2019-02-19T18:23:08.708Z,24.10
2019-02-19T18:24:08.663Z,21.90
2019-02-19T18:25:08.814Z,25.40
2019-02-19T18:26:08.560Z,29.10
2019-02-19T18:27:08.511Z,27.00
2019-02-19T18:28:08.562Z,25.80
2019-02-19T18:29:08.412Z,29.80
2019-02-19T18:30:08.365Z,26.30
2019-02-19T18:31:08.316Z,23.60
2019-02-19T18:32:08.265Z,28.10
2019-02-19T18:33:08.216Z,25.00
2019-02-19T18:34:08.407Z,24.30
2019-02-19T18:35:08.116Z,23.90
2019-02-19T18:36:08.069Z,24.80
2019-02-19T18:37:08.109Z,32.20
2019-02-19T18:38:07.968Z,34.40
2019-02-19T18:39:07.920Z,28.70
2019-02-19T18:40:07.869Z,29.70
2019-02-19T18:41:07.823Z,26.30
2019-02-19T18:42:07.773Z,26.90
2019-02-19T18:43:07.723Z,24.40
2019-02-19T18:44:07.673Z,27.70
2019-02-19T18:45:07.826Z,32.70
2019-02-19T18:46:07.578Z,25.70
2019-02-19T18:47:07.525Z,27.60
2019-02-19T18:48:07.566Z,24.40
2019-02-19T18:49:07.426Z,26.00
2019-02-19T18:50:07.378Z,28.20
2019-02-19T18:51:07.328Z,27.40
2019-02-19T18:52:07.280Z,26.40
2019-02-19T18:53:07.250Z,27.60
2019-02-19T18:54:07.433Z,27.30
2019-02-19T18:55:07.135Z,29.90
2019-02-19T18:56:07.081Z,29.90
2019-02-19T18:57:07.116Z,24.40
2019-02-19T18:58:06.984Z,25.20
2019-02-19T18:59:06.936Z,25.10
2019-02-19T19:00:06.885Z,27.20
2019-02-19T19:01:08.563Z,27.90
2019-02-19T19:02:06.786Z,28.80
2019-02-19T19:03:06.925Z,30.20
2019-02-19T19:04:06.690Z,26.50
2019-02-19T19:05:06.637Z,30.60
2019-02-19T19:06:06.668Z,37.30
2019-02-19T19:07:06.539Z,34.50
2019-02-19T19:08:06.495Z,28.50
2019-02-19T19:09:06.441Z,32.60
2019-02-19T19:10:06.390Z,25.20
2019-02-19T19:11:06.343Z,25.10
2019-02-19T19:12:06.294Z,25.70
2019-02-19T19:13:06.243Z,26.00
2019-02-19T19:14:06.445Z,24.90
2019-02-19T19:15:06.145Z,23.00
2019-02-19T19:16:06.102Z,26.60
2019-02-19T19:17:06.123Z,22.90
2019-02-19T19:18:06.000Z,21.10
2019-02-19T19:19:05.948Z,26.80
2019-02-19T19:20:05.902Z,21.20
2019-02-19T19:21:08.191Z,26.90
2019-02-19T19:22:05.798Z,26.30
2019-02-19T19:23:05.948Z,23.40
2019-02-19T19:24:05.699Z,23.20
2019-02-19T19:25:05.658Z,25.30
2019-02-19T19:26:05.679Z,24.30
2019-02-19T19:27:05.552Z,24.10
2019-02-19T19:28:05.501Z,22.10
2019-02-19T19:29:05.456Z,22.50
2019-02-19T19:30:05.402Z,21.30
2019-02-19T19:31:05.353Z,23.10
2019-02-19T19:32:05.308Z,27.50
2019-02-19T19:33:05.253Z,24.40
2019-02-19T19:34:05.446Z,22.10
2019-02-19T19:35:05.155Z,24.90
2019-02-19T19:36:05.106Z,26.30
2019-02-19T19:37:05.135Z,22.60
2019-02-19T19:38:05.009Z,24.30
2019-02-19T19:39:04.958Z,26.30
2019-02-19T19:40:04.910Z,22.70
2019-02-19T19:41:04.858Z,23.30
2019-02-19T19:42:04.807Z,24.80
2019-02-19T19:43:04.949Z,24.40
2019-02-19T19:44:04.710Z,24.60
2019-02-19T19:45:04.659Z,26.90
2019-02-19T19:46:04.695Z,27.50
2019-02-19T19:47:04.561Z,24.00
2019-02-19T19:48:04.511Z,26.30
2019-02-19T19:49:04.460Z,25.10
2019-02-19T19:50:04.416Z,22.50
2019-02-19T19:51:04.362Z,22.00
2019-02-19T19:52:04.315Z,22.10
2019-02-19T19:53:04.263Z,26.60
2019-02-19T19:54:04.457Z,22.00
2019-02-19T19:55:04.165Z,24.90
2019-02-19T19:56:04.128Z,26.10
2019-02-19T19:57:04.526Z,24.50
2019-02-19T19:58:04.015Z,24.80
2019-02-19T19:59:04.020Z,23.80
2019-02-19T20:00:03.919Z,24.40
2019-02-19T20:01:03.870Z,20.30
2019-02-19T20:02:03.820Z,22.20
2019-02-19T20:03:03.970Z,25.30
2019-02-19T20:04:03.721Z,22.60
2019-02-19T20:05:03.669Z,21.80
2019-02-19T20:06:03.691Z,26.30
2019-02-19T20:07:03.573Z,29.30
2019-02-19T20:08:03.519Z,24.60
2019-02-19T20:09:03.469Z,39.70
2019-02-19T20:10:03.420Z,39.00
2019-02-19T20:11:03.373Z,40.40
2019-02-19T20:12:03.323Z,37.70
2019-02-19T20:13:03.272Z,35.80
2019-02-19T20:14:03.368Z,43.40
2019-02-19T20:15:03.173Z,31.70
2019-02-19T20:16:03.124Z,39.30
2019-02-19T20:17:03.152Z,39.70
2019-02-19T20:18:03.025Z,39.80
2019-02-19T20:19:02.977Z,45.20
2019-02-19T20:20:02.928Z,44.00
2019-02-19T20:21:02.877Z,35.10
2019-02-19T20:22:02.827Z,35.90
2019-02-19T20:23:02.995Z,35.20
2019-02-19T20:24:02.735Z,36.20
2019-02-19T20:25:02.677Z,30.40
2019-02-19T20:26:02.630Z,35.10
2019-02-19T20:27:02.583Z,34.00
2019-02-19T20:28:02.534Z,40.30
2019-02-19T20:29:07.205Z,28.30
2019-02-19T20:30:02.434Z,36.80
2019-02-19T20:31:02.381Z,28.00
2019-02-19T20:32:02.335Z,35.30
2019-02-19T20:33:02.309Z,32.00
2019-02-19T20:34:02.381Z,32.40
2019-02-19T20:35:02.186Z,28.30
2019-02-19T20:36:02.139Z,30.50
2019-02-19T20:37:02.161Z,27.20
2019-02-19T20:38:02.035Z,28.20
2019-02-19T20:39:01.986Z,25.90
2019-02-19T20:40:01.942Z,24.00
2019-02-19T20:41:01.890Z,26.60
2019-02-19T20:42:01.838Z,28.50
2019-02-19T20:43:01.983Z,26.90
2019-02-19T20:44:01.742Z,27.90
2019-02-19T20:45:01.691Z,26.20
2019-02-19T20:46:01.709Z,25.50
2019-02-19T20:47:01.593Z,27.10
2019-02-19T20:48:01.548Z,25.10
2019-02-19T20:49:01.494Z,25.20
2019-02-19T20:50:01.465Z,28.00
2019-02-19T20:51:01.396Z,27.50
2019-02-19T20:52:01.346Z,32.00
2019-02-19T20:53:01.297Z,23.10
2019-02-19T20:54:01.401Z,28.20
2019-02-19T20:55:01.197Z,27.10
2019-02-19T20:56:01.152Z,25.90
2019-02-19T20:57:01.169Z,27.70
2019-02-19T20:58:01.049Z,27.80
2019-02-19T20:59:01.003Z,25.70
2019-02-19T21:00:00.951Z,27.00
2019-02-19T21:01:00.902Z,26.60
2019-02-19T21:02:00.851Z,27.60
2019-02-19T21:03:01.007Z,31.40
2019-02-19T21:04:00.755Z,29.10
2019-02-19T21:05:00.703Z,33.20
2019-02-19T21:06:00.722Z,27.20
2019-02-19T21:07:00.605Z,26.40
2019-02-19T21:08:00.551Z,31.30
2019-02-19T21:09:00.506Z,31.00
2019-02-19T21:10:00.476Z,27.70
2019-02-19T21:11:00.409Z,33.70
2019-02-19T21:12:00.358Z,32.50
2019-02-19T21:13:00.307Z,31.80
2019-02-19T21:14:00.412Z,31.40
2019-02-19T21:15:00.260Z,30.50
2019-02-19T21:16:00.159Z,31.20
2019-02-19T21:17:00.177Z,29.90
2019-02-19T21:18:00.061Z,30.00
2019-02-19T21:19:00.011Z,30.10
2019-02-19T21:19:59.961Z,29.90
2019-02-19T21:20:59.912Z,32.60
2019-02-19T21:21:59.866Z,29.50
2019-02-19T21:23:00.016Z,27.20
2019-02-19T21:23:59.763Z,29.60
2019-02-19T21:24:59.719Z,29.80
2019-02-19T21:25:59.729Z,31.20
2019-02-19T21:26:59.614Z,29.90
2019-02-19T21:27:59.566Z,29.90
2019-02-19T21:28:59.516Z,28.30
2019-02-19T21:29:59.465Z,29.90
2019-02-19T21:30:59.454Z,28.50
2019-02-19T21:31:59.368Z,28.30
2019-02-19T21:32:59.315Z,27.90
2019-02-19T21:33:59.429Z,28.20
2019-02-19T21:34:59.221Z,28.00
2019-02-19T21:35:59.167Z,24.20
2019-02-19T21:36:59.192Z,28.00
2019-02-19T21:37:59.069Z,25.00
2019-02-19T21:38:59.019Z,27.30
2019-02-19T21:39:58.969Z,24.80
2019-02-19T21:40:58.920Z,26.00
2019-02-19T21:41:58.879Z,26.20
2019-02-19T21:42:58.819Z,26.80
2019-02-19T21:43:58.771Z,24.90
2019-02-19T21:44:58.933Z,25.80
2019-02-19T21:45:58.672Z,27.60
2019-02-19T21:46:58.623Z,25.60
2019-02-19T21:47:58.648Z,28.20
2019-02-19T21:48:58.523Z,28.00
2019-02-19T21:49:58.474Z,24.10
2019-02-19T21:50:58.424Z,29.30
2019-02-19T21:51:58.385Z,26.90
2019-02-19T21:52:58.326Z,29.60
2019-02-19T21:53:58.448Z,32.90
2019-02-19T21:54:58.224Z,30.70
2019-02-19T21:55:58.175Z,28.60
2019-02-19T21:56:58.194Z,31.90
2019-02-19T21:57:59.708Z,30.40
2019-02-19T21:58:58.025Z,30.40
2019-02-19T21:59:57.977Z,28.30
2019-02-19T22:00:57.925Z,34.20
2019-02-19T22:01:57.879Z,32.30
2019-02-19T22:02:58.052Z,31.90
2019-02-19T22:03:57.778Z,30.70
2019-02-19T22:04:57.730Z,28.70
2019-02-19T22:05:57.743Z,30.90
2019-02-19T22:06:57.637Z,30.40
2019-02-19T22:07:57.580Z,34.30
2019-02-19T22:08:57.528Z,33.90
2019-02-19T22:09:57.479Z,30.60
2019-02-19T22:10:57.433Z,34.60
2019-02-19T22:11:57.381Z,32.50
2019-02-19T22:12:57.330Z,31.10
2019-02-19T22:13:57.455Z,36.20
2019-02-19T22:14:57.233Z,31.90
2019-02-19T22:15:57.185Z,34.80
2019-02-19T22:16:57.204Z,33.90
2019-02-19T22:17:57.082Z,33.00
2019-02-19T22:18:57.033Z,34.50
2019-02-19T22:20:02.869Z,35.80
2019-02-19T22:20:56.931Z,35.60
2019-02-19T22:22:03.233Z,33.50
2019-02-19T22:22:57.063Z,33.60
2019-02-19T22:23:56.784Z,30.20
2019-02-19T22:24:56.734Z,31.40
2019-02-19T22:25:56.762Z,35.80
2019-02-19T22:26:56.636Z,33.50
2019-02-19T22:27:56.583Z,34.70
2019-02-19T22:28:56.534Z,33.10
2019-02-19T22:29:56.486Z,33.10
2019-02-19T22:30:56.438Z,34.70
2019-02-19T22:31:56.388Z,31.50
2019-02-19T22:32:56.343Z,36.00
2019-02-19T22:33:56.452Z,34.40
2019-02-19T22:34:56.240Z,35.60
2019-02-19T22:35:56.192Z,30.30
2019-02-19T22:36:56.213Z,32.20
2019-02-19T22:37:56.089Z,35.30
2019-02-19T22:38:56.042Z,33.60
2019-02-19T22:39:55.990Z,35.20
2019-02-19T22:40:55.940Z,35.70
2019-02-19T22:41:55.893Z,38.60
2019-02-19T22:42:56.199Z,35.30
2019-02-19T22:43:55.791Z,32.70
2019-02-19T22:44:55.753Z,31.50
2019-02-19T22:45:55.761Z,38.90
2019-02-19T22:46:55.643Z,34.50
2019-02-19T22:47:55.593Z,35.70
2019-02-19T22:48:55.544Z,36.80
2019-02-19T22:49:55.493Z,35.00
2019-02-19T22:50:55.445Z,38.10
2019-02-19T22:51:55.563Z,35.60
2019-02-19T22:52:55.343Z,31.90
2019-02-19T22:53:55.295Z,35.90
2019-02-19T22:54:55.310Z,33.50
2019-02-19T22:55:55.196Z,31.90
2019-02-19T22:56:55.146Z,31.90
2019-02-19T22:57:55.098Z,31.40
2019-02-19T22:58:55.046Z,33.90
2019-02-19T22:59:54.999Z,37.10
2019-02-19T23:00:55.166Z,34.10
2019-02-19T23:01:54.902Z,33.80
2019-02-19T23:02:54.848Z,35.90
2019-02-19T23:03:54.806Z,34.20
2019-02-19T23:04:54.749Z,35.70
2019-02-19T23:05:54.732Z,35.30
2019-02-19T23:06:54.652Z,38.10
2019-02-19T23:07:54.601Z,36.00
2019-02-19T23:08:54.600Z,33.70
2019-02-19T23:09:54.520Z,37.10
2019-02-19T23:10:54.458Z,32.10
2019-02-19T23:11:54.401Z,33.20
2019-02-19T23:12:54.410Z,34.10
2019-02-19T23:13:54.303Z,33.90
2019-02-19T23:14:54.253Z,31.40
2019-02-19T23:15:54.203Z,31.50
2019-02-19T23:16:54.155Z,34.40
2019-02-19T23:17:54.104Z,37.00
2019-02-19T23:18:54.055Z,40.40
2019-02-19T23:19:54.003Z,40.00
2019-02-19T23:20:54.195Z,39.20
2019-02-19T23:21:53.913Z,34.00
2019-02-19T23:22:53.856Z,36.30
2019-02-19T23:23:53.806Z,31.90
2019-02-19T23:24:53.787Z,31.10
2019-02-19T23:25:53.708Z,36.10
2019-02-19T23:26:53.657Z,36.70
2019-02-19T23:27:53.608Z,33.60
2019-02-19T23:28:53.559Z,36.00
2019-02-19T23:29:53.691Z,33.50
2019-02-19T23:30:53.459Z,33.00
2019-02-19T23:31:53.408Z,31.80
2019-02-19T23:32:53.420Z,33.50
2019-02-19T23:33:53.309Z,33.70
2019-02-19T23:34:53.260Z,33.20
2019-02-19T23:35:55.019Z,36.90
2019-02-19T23:36:53.182Z,31.10
2019-02-19T23:37:53.110Z,38.20
2019-02-19T23:38:53.304Z,33.60
2019-02-19T23:39:53.011Z,34.80
2019-02-19T23:40:52.962Z,34.10
2019-02-19T23:41:52.910Z,31.20
2019-02-19T23:42:52.859Z,35.70
2019-02-19T23:43:52.816Z,35.80
2019-02-19T23:44:52.761Z,36.40
2019-02-19T23:45:52.731Z,34.90
2019-02-19T23:46:52.663Z,38.00
2019-02-19T23:47:52.806Z,37.80
2019-02-19T23:48:52.561Z,32.20
2019-02-19T23:49:52.525Z,34.50
2019-02-19T23:50:52.515Z,37.50
2019-02-19T23:51:52.413Z,34.00
2019-02-19T23:52:52.361Z,36.00
2019-02-19T23:53:52.311Z,40.50
2019-02-19T23:54:52.262Z,39.40
2019-02-19T23:55:52.214Z,39.80
2019-02-19T23:56:52.186Z,37.80
2019-02-19T23:57:52.116Z,35.80
2019-02-19T23:58:52.322Z,36.10
2019-02-19T23:59:52.015Z,37.80
